Kezdőlap
METAR-TAF:

METAR-TAF

Repülőterek :

Harriman-and-West Airport

North Adams, Massachusetts, Amerikai Egyesült Államok

földrajzi szélesség: 42-41-50N, földrajzi hosszúság: 073-10-13W, magasság: 199 m

Jelenlegi meteorológiai megfigyelések

A jelentés 34 perccel ezelõtt készült, 17:52 UTC
Nyugati szél 8 kt
Hőmérséklet 8°C
Páratartalom 42%
Légköri nyomás 1019 hPa
Látótávolság: 16.1 km
Derült ég

METAR: KAQW 231752Z AUTO 28008KT 10SM CLR 08/M04 A3008 RMK AO2 SLP193 T00831044 10083 21067 58018 $

Idő: 13:26 (18:26 UTC)


TAF: hiányzik

Meteorológiai megfigyelések és előrejelzések több, mint 4000 repülőtéren (METAR és TAF jelentéseket).

A térképen piros és sárga pontok jelzik az elérhető meteorológiai állomásokat.

Mozgassa az egeret a pont fölött, hogy megjelenjen az állomás neve.

Azután kattintson az időjárási megfigyelések és előrejelzések megtekintéséhez.

A térkép megváltoztatása: kattintson a fekete keresztel jelölt zöld gombra ráközelítéshez, a vonallal jelölt zöld gombra távolításhoz, vagy a zöld nyilakra a szomszédos térképek eléréséhez.


METAR-TAF: